KMMK

Details ICAO KMMK
Name Meriden Markham Municipal
Region United States
Timezone America/New_York (UTC-5.0)
Plans Departing 4
Arriving 4
Stats Elevation 103 ft / 31 m (AMSL)
Location 41.508715° -72.829478°
Runways 1
Magnetic Variation 13.661° W
Sunrise 2017-12-13 12:10:52 UTC / 2017-12-13 07:10:52 Local
Sunset 2017-12-13 21:23:12 UTC / 2017-12-13 16:23:12 Local
Advertisement - Login to hide

Runways

ID Width Length Bearing (true) Bearing (mag) Surface Threshold Offset Overrun Length
18 75 ft / 23 m 3,103 ft / 946 m 161.74° 175.40° Asphalt 0 ft / 0 m 0 ft / 0 m
36 75 ft / 23 m 3,103 ft / 946 m 341.74° 355.40° Asphalt 0 ft / 0 m 0 ft / 0 m

Map

Weather


0- 5 10 15 20 25 30 35+ Temperature / ° C

Clouds and Precipitation
Forecast for 2017-12-13 12:00 UTC. Updated 9 minutes ago

Ground ~20,000 ft ~40,000 ft Winds

METAR

KMMK 130653Z AUTO 32013G20KT 10SM OVC048 M03/M12 A2941 RMK AO2 SLP959 T10281117

TAF

Not found

Frequencies

Recorded 134.92 MHz ASOS
Clearance 120.65 MHz CLNC DEL
Unicom 123.05 MHz CTAF
Departure 127.80 MHz APP/DEP
Warning: Do not use this data for real-world aviation or navigation. No guarantee of current accuracy is given.